sensor_id;sensor_type;location;lat;lon;timestamp;pressure;altitude;pressure_sealevel;temperature;humidity
43420;BME280;29017;51.514;-0.178;2023-09-12T00:02:15;100871.59;;;22.69;88.62
43420;BME280;29017;51.514;-0.178;2023-09-12T00:04:42;100873.00;;;22.72;87.50
43420;BME280;29017;51.514;-0.178;2023-09-12T00:07:10;100872.56;;;22.75;86.55
43420;BME280;29017;51.514;-0.178;2023-09-12T00:09:37;100870.69;;;22.75;86.31
43420;BME280;29017;51.514;-0.178;2023-09-12T00:12:05;100867.19;;;22.75;85.61
43420;BME280;29017;51.514;-0.178;2023-09-12T00:14:32;100864.75;;;22.73;85.58
43420;BME280;29017;51.514;-0.178;2023-09-12T00:17:00;100866.59;;;22.73;85.53
43420;BME280;29017;51.514;-0.178;2023-09-12T00:19:27;100869.50;;;22.71;85.12
43420;BME280;29017;51.514;-0.178;2023-09-12T00:21:54;100863.31;;;22.71;85.24
43420;BME280;29017;51.514;-0.178;2023-09-12T00:24:23;100870.56;;;22.70;85.59
43420;BME280;29017;51.514;-0.178;2023-09-12T00:26:50;100856.19;;;22.65;85.30
43420;BME280;29017;51.514;-0.178;2023-09-12T00:29:17;100867.38;;;22.61;84.92
43420;BME280;29017;51.514;-0.178;2023-09-12T00:31:44;100855.25;;;22.59;85.38
43420;BME280;29017;51.514;-0.178;2023-09-12T00:34:16;100864.69;;;22.61;85.79
43420;BME280;29017;51.514;-0.178;2023-09-12T00:36:44;100865.28;;;22.64;85.41
43420;BME280;29017;51.514;-0.178;2023-09-12T00:39:11;100858.88;;;22.65;85.36
43420;BME280;29017;51.514;-0.178;2023-09-12T00:41:38;100864.25;;;22.65;85.16
43420;BME280;29017;51.514;-0.178;2023-09-12T00:44:06;100863.63;;;22.63;84.98
43420;BME280;29017;51.514;-0.178;2023-09-12T00:46:34;100864.69;;;22.61;84.85
43420;BME280;29017;51.514;-0.178;2023-09-12T00:49:02;100862.47;;;22.58;84.60
43420;BME280;29017;51.514;-0.178;2023-09-12T00:51:32;100857.31;;;22.57;84.84
43420;BME280;29017;51.514;-0.178;2023-09-12T00:54:01;100860.00;;;22.57;84.86
43420;BME280;29017;51.514;-0.178;2023-09-12T00:56:28;100862.13;;;22.55;84.82
43420;BME280;29017;51.514;-0.178;2023-09-12T00:58:56;100859.44;;;22.55;85.19
43420;BME280;29017;51.514;-0.178;2023-09-12T01:01:23;100861.31;;;22.54;85.46
43420;BME280;29017;51.514;-0.178;2023-09-12T01:03:51;100857.19;;;22.52;85.26
43420;BME280;29017;51.514;-0.178;2023-09-12T01:06:19;100858.84;;;22.53;84.68
43420;BME280;29017;51.514;-0.178;2023-09-12T01:08:48;100853.47;;;22.53;84.37
43420;BME280;29017;51.514;-0.178;2023-09-12T01:11:16;100848.94;;;22.53;84.39
43420;BME280;29017;51.514;-0.178;2023-09-12T01:13:47;100846.25;;;22.53;84.23
43420;BME280;29017;51.514;-0.178;2023-09-12T01:16:15;100844.59;;;22.52;83.85
43420;BME280;29017;51.514;-0.178;2023-09-12T01:18:42;100836.56;;;22.52;83.87
43420;BME280;29017;51.514;-0.178;2023-09-12T01:24:13;100841.59;;;22.49;84.03
43420;BME280;29017;51.514;-0.178;2023-09-12T01:26:59;100842.41;;;22.49;83.54
43420;BME280;29017;51.514;-0.178;2023-09-12T01:29:30;100834.78;;;22.46;83.37
43420;BME280;29017;51.514;-0.178;2023-09-12T01:32:03;100835.84;;;22.45;83.36
43420;BME280;29017;51.514;-0.178;2023-09-12T01:34:30;100843.09;;;22.45;83.41
43420;BME280;29017;51.514;-0.178;2023-09-12T01:36:57;100842.84;;;22.46;83.11
43420;BME280;29017;51.514;-0.178;2023-09-12T01:39:24;100840.97;;;22.47;83.15
43420;BME280;29017;51.514;-0.178;2023-09-12T01:41:54;100840.75;;;22.48;83.35
43420;BME280;29017;51.514;-0.178;2023-09-12T01:44:24;100844.84;;;22.51;83.18
43420;BME280;29017;51.514;-0.178;2023-09-12T01:46:52;100846.47;;;22.52;82.58
43420;BME280;29017;51.514;-0.178;2023-09-12T01:49:22;100841.31;;;22.50;82.42
43420;BME280;29017;51.514;-0.178;2023-09-12T01:51:52;100840.28;;;22.51;82.70
43420;BME280;29017;51.514;-0.178;2023-09-12T01:54:21;100838.66;;;22.50;82.54
43420;BME280;29017;51.514;-0.178;2023-09-12T01:56:50;100840.53;;;22.50;81.89
43420;BME280;29017;51.514;-0.178;2023-09-12T01:59:18;100828.38;;;22.47;82.00
43420;BME280;29017;51.514;-0.178;2023-09-12T02:01:46;100834.78;;;22.46;82.11
43420;BME280;29017;51.514;-0.178;2023-09-12T02:04:13;100832.59;;;22.43;81.90
43420;BME280;29017;51.514;-0.178;2023-09-12T02:06:40;100835.50;;;22.42;82.32
43420;BME280;29017;51.514;-0.178;2023-09-12T02:09:07;100844.00;;;22.39;82.50
43420;BME280;29017;51.514;-0.178;2023-09-12T02:11:34;100840.16;;;22.35;82.46
43420;BME280;29017;51.514;-0.178;2023-09-12T02:14:01;100848.06;;;22.30;82.54
43420;BME280;29017;51.514;-0.178;2023-09-12T02:16:31;100845.63;;;22.28;82.71
43420;BME280;29017;51.514;-0.178;2023-09-12T02:18:59;100845.25;;;22.25;82.50
43420;BME280;29017;51.514;-0.178;2023-09-12T02:21:26;100845.25;;;22.25;82.49
43420;BME280;29017;51.514;-0.178;2023-09-12T02:23:53;100836.41;;;22.24;83.69
43420;BME280;29017;51.514;-0.178;2023-09-12T02:26:20;100836.97;;;22.26;83.20
43420;BME280;29017;51.514;-0.178;2023-09-12T02:28:48;100840.69;;;22.25;83.14
43420;BME280;29017;51.514;-0.178;2023-09-12T02:31:15;100846.06;;;22.25;82.80
43420;BME280;29017;51.514;-0.178;2023-09-12T02:33:42;100844.44;;;22.24;82.88
43420;BME280;29017;51.514;-0.178;2023-09-12T02:36:10;100851.06;;;22.22;82.59
43420;BME280;29017;51.514;-0.178;2023-09-12T02:38:37;100858.53;;;22.20;82.64
43420;BME280;29017;51.514;-0.178;2023-09-12T02:41:04;100846.16;;;22.18;82.98
43420;BME280;29017;51.514;-0.178;2023-09-12T02:43:31;100853.19;;;22.20;82.41
43420;BME280;29017;51.514;-0.178;2023-09-12T02:45:59;100857.94;;;22.17;82.57
43420;BME280;29017;51.514;-0.178;2023-09-12T02:48:26;100857.34;;;22.15;82.79
43420;BME280;29017;51.514;-0.178;2023-09-12T02:50:53;100862.94;;;22.14;82.87
43420;BME280;29017;51.514;-0.178;2023-09-12T02:53:20;100861.31;;;22.13;83.53
43420;BME280;29017;51.514;-0.178;2023-09-12T02:55:48;100855.34;;;22.11;83.88
43420;BME280;29017;51.514;-0.178;2023-09-12T02:58:15;100851.47;;;22.07;83.06
43420;BME280;29017;51.514;-0.178;2023-09-12T03:00:42;100857.66;;;22.07;83.71
43420;BME280;29017;51.514;-0.178;2023-09-12T03:03:09;100854.53;;;22.10;83.86
43420;BME280;29017;51.514;-0.178;2023-09-12T03:05:37;100855.13;;;22.12;83.29
43420;BME280;29017;51.514;-0.178;2023-09-12T03:08:04;100855.34;;;22.11;82.87
43420;BME280;29017;51.514;-0.178;2023-09-12T03:10:31;100854.78;;;22.09;83.14
43420;BME280;29017;51.514;-0.178;2023-09-12T03:12:58;100858.28;;;22.09;83.18
43420;BME280;29017;51.514;-0.178;2023-09-12T03:15:25;100849.63;;;22.07;84.02
43420;BME280;29017;51.514;-0.178;2023-09-12T03:17:53;100850.88;;;22.05;84.89
43420;BME280;29017;51.514;-0.178;2023-09-12T03:20:20;100852.16;;;22.02;86.80
43420;BME280;29017;51.514;-0.178;2023-09-12T03:22:47;100847.84;;;22.01;86.99
43420;BME280;29017;51.514;-0.178;2023-09-12T03:25:14;100853.00;;;22.03;86.77
43420;BME280;29017;51.514;-0.178;2023-09-12T03:27:42;100850.31;;;22.03;86.98
43420;BME280;29017;51.514;-0.178;2023-09-12T03:30:09;100851.34;;;22.02;87.18
43420;BME280;29017;51.514;-0.178;2023-09-12T03:32:37;100847.25;;;21.99;87.73
43420;BME280;29017;51.514;-0.178;2023-09-12T03:35:05;100858.22;;;21.98;87.94
43420;BME280;29017;51.514;-0.178;2023-09-12T03:37:32;100845.84;;;21.97;87.91
43420;BME280;29017;51.514;-0.178;2023-09-12T03:39:59;100848.53;;;21.97;88.52
43420;BME280;29017;51.514;-0.178;2023-09-12T03:42:26;100844.00;;;21.97;89.04
43420;BME280;29017;51.514;-0.178;2023-09-12T03:45:08;100835.94;;;21.97;88.07
43420;BME280;29017;51.514;-0.178;2023-09-12T03:47:35;100838.63;;;21.97;87.93
43420;BME280;29017;51.514;-0.178;2023-09-12T03:50:03;100839.19;;;21.99;88.25
43420;BME280;29017;51.514;-0.178;2023-09-12T03:52:30;100827.91;;;21.97;88.01
43420;BME280;29017;51.514;-0.178;2023-09-12T03:54:57;100828.13;;;21.96;87.85
43420;BME280;29017;51.514;-0.178;2023-09-12T03:57:27;100832.06;;;21.93;87.84
43420;BME280;29017;51.514;-0.178;2023-09-12T03:59:54;100843.00;;;21.92;89.01
43420;BME280;29017;51.514;-0.178;2023-09-12T04:02:22;100838.47;;;21.92;88.91
43420;BME280;29017;51.514;-0.178;2023-09-12T04:04:49;100836.00;;;21.91;88.40
43420;BME280;29017;51.514;-0.178;2023-09-12T04:07:16;100828.78;;;21.91;88.33
43420;BME280;29017;51.514;-0.178;2023-09-12T04:09:44;100831.69;;;21.90;88.44
43420;BME280;29017;51.514;-0.178;2023-09-12T04:12:11;100837.66;;;21.92;88.75
43420;BME280;29017;51.514;-0.178;2023-09-12T04:14:38;100837.28;;;21.88;88.72
43420;BME280;29017;51.514;-0.178;2023-09-12T04:17:05;100841.69;;;21.83;88.38
43420;BME280;29017;51.514;-0.178;2023-09-12T04:19:35;100832.84;;;21.82;88.96
43420;BME280;29017;51.514;-0.178;2023-09-12T04:22:02;100830.97;;;21.83;89.34
43420;BME280;29017;51.514;-0.178;2023-09-12T04:24:31;100828.38;;;21.76;88.54
43420;BME280;29017;51.514;-0.178;2023-09-12T04:26:58;100825.78;;;21.69;88.85
43420;BME280;29017;51.514;-0.178;2023-09-12T04:29:25;100819.00;;;21.67;89.47
43420;BME280;29017;51.514;-0.178;2023-09-12T04:31:54;100816.34;;;21.67;89.49
43420;BME280;29017;51.514;-0.178;2023-09-12T04:34:26;100812.38;;;21.69;89.81
43420;BME280;29017;51.514;-0.178;2023-09-12T04:36:53;100823.09;;;21.69;89.37
43420;BME280;29017;51.514;-0.178;2023-09-12T04:39:20;100816.34;;;21.67;89.34
43420;BME280;29017;51.514;-0.178;2023-09-12T04:41:47;100819.84;;;21.67;89.51
43420;BME280;29017;51.514;-0.178;2023-09-12T04:44:15;100816.56;;;21.65;89.53
43420;BME280;29017;51.514;-0.178;2023-09-12T04:46:42;100810.63;;;21.63;89.24
43420;BME280;29017;51.514;-0.178;2023-09-12T04:49:10;100807.56;;;21.60;88.59
43420;BME280;29017;51.514;-0.178;2023-09-12T04:51:37;100816.19;;;21.62;88.79
43420;BME280;29017;51.514;-0.178;2023-09-12T04:54:04;100811.88;;;21.61;88.54
43420;BME280;29017;51.514;-0.178;2023-09-12T04:56:32;100815.84;;;21.58;88.25
43420;BME280;29017;51.514;-0.178;2023-09-12T04:58:59;100822.22;;;21.57;88.01
43420;BME280;29017;51.514;-0.178;2023-09-12T05:01:26;100821.84;;;21.54;87.70
43420;BME280;29017;51.514;-0.178;2023-09-12T05:03:53;100816.72;;;21.52;87.78
43420;BME280;29017;51.514;-0.178;2023-09-12T05:06:20;100821.47;;;21.50;88.06
43420;BME280;29017;51.514;-0.178;2023-09-12T05:08:48;100826.69;;;21.45;87.32
43420;BME280;29017;51.514;-0.178;2023-09-12T05:11:15;100820.97;;;21.42;87.40
43420;BME280;29017;51.514;-0.178;2023-09-12T05:13:42;100823.28;;;21.38;87.76
43420;BME280;29017;51.514;-0.178;2023-09-12T05:16:09;100824.91;;;21.39;87.13
43420;BME280;29017;51.514;-0.178;2023-09-12T05:18:36;100824.91;;;21.39;88.73
43420;BME280;29017;51.514;-0.178;2023-09-12T05:21:04;100832.13;;;21.39;88.27
43420;BME280;29017;51.514;-0.178;2023-09-12T05:23:31;100828.19;;;21.41;87.70
43420;BME280;29017;51.514;-0.178;2023-09-12T05:25:58;100832.72;;;21.41;87.42
43420;BME280;29017;51.514;-0.178;2023-09-12T05:28:25;100831.91;;;21.40;87.39
43420;BME280;29017;51.514;-0.178;2023-09-12T05:30:53;100827.16;;;21.42;87.56
43420;BME280;29017;51.514;-0.178;2023-09-12T05:33:20;100828.19;;;21.41;87.61
43420;BME280;29017;51.514;-0.178;2023-09-12T05:35:47;100825.72;;;21.40;87.41
43420;BME280;29017;51.514;-0.178;2023-09-12T05:38:15;100831.31;;;21.38;88.01
43420;BME280;29017;51.514;-0.178;2023-09-12T05:40:42;100825.97;;;21.38;87.78
43420;BME280;29017;51.514;-0.178;2023-09-12T05:43:09;100830.03;;;21.41;87.54
43420;BME280;29017;51.514;-0.178;2023-09-12T05:45:36;100836.22;;;21.41;87.14
43420;BME280;29017;51.514;-0.178;2023-09-12T05:48:04;100830.03;;;21.41;87.41
43420;BME280;29017;51.514;-0.178;2023-09-12T05:50:31;100830.03;;;21.41;87.49
43420;BME280;29017;51.514;-0.178;2023-09-12T05:52:58;100833.53;;;21.41;86.96
43420;BME280;29017;51.514;-0.178;2023-09-12T05:55:25;100839.13;;;21.40;87.41
43420;BME280;29017;51.514;-0.178;2023-09-12T05:57:52;100844.25;;;21.41;88.10
43420;BME280;29017;51.514;-0.178;2023-09-12T06:00:20;100848.78;;;21.41;87.46
43420;BME280;29017;51.514;-0.178;2023-09-12T06:02:48;100850.66;;;21.40;87.21
43420;BME280;29017;51.514;-0.178;2023-09-12T06:05:16;100852.50;;;21.40;87.00
43420;BME280;29017;51.514;-0.178;2023-09-12T06:07:46;100854.97;;;21.41;87.16
43420;BME280;29017;51.514;-0.178;2023-09-12T06:10:13;100864.41;;;21.44;87.08
43420;BME280;29017;51.514;-0.178;2023-09-12T06:12:41;100859.03;;;21.44;86.66
43420;BME280;29017;51.514;-0.178;2023-09-12T06:15:08;100855.31;;;21.45;87.15
43420;BME280;29017;51.514;-0.178;2023-09-12T06:17:36;100864.19;;;21.45;87.27
43420;BME280;29017;51.514;-0.178;2023-09-12T06:20:04;100863.16;;;21.46;87.41
43420;BME280;29017;51.514;-0.178;2023-09-12T06:22:33;100873.66;;;21.48;86.86
43420;BME280;29017;51.514;-0.178;2023-09-12T06:25:01;100871.53;;;21.50;87.32
43420;BME280;29017;51.514;-0.178;2023-09-12T06:27:28;100878.09;;;21.54;86.96
43420;BME280;29017;51.514;-0.178;2023-09-12T06:29:55;100879.72;;;21.55;86.94
43420;BME280;29017;51.514;-0.178;2023-09-12T06:32:22;100875.66;;;21.52;86.61
43420;BME280;29017;51.514;-0.178;2023-09-12T06:34:50;100874.00;;;21.51;86.95
43420;BME280;29017;51.514;-0.178;2023-09-12T06:37:17;100886.38;;;21.52;86.69
43420;BME280;29017;51.514;-0.178;2023-09-12T06:39:48;100885.91;;;21.55;87.18
43420;BME280;29017;51.514;-0.178;2023-09-12T06:42:16;100885.09;;;21.55;86.54
43420;BME280;29017;51.514;-0.178;2023-09-12T06:44:43;100886.38;;;21.52;86.29
43420;BME280;29017;51.514;-0.178;2023-09-12T06:47:11;100887.19;;;21.53;86.05
43420;BME280;29017;51.514;-0.178;2023-09-12T06:49:38;100893.72;;;21.57;86.31
43420;BME280;29017;51.514;-0.178;2023-09-12T06:52:06;100899.66;;;21.59;86.29
43420;BME280;29017;51.514;-0.178;2023-09-12T06:54:33;100894.09;;;21.60;86.79
43420;BME280;29017;51.514;-0.178;2023-09-12T06:57:00;100905.25;;;21.57;86.91
43420;BME280;29017;51.514;-0.178;2023-09-12T06:59:27;100898.06;;;21.58;86.86
43420;BME280;29017;51.514;-0.178;2023-09-12T07:01:55;100907.69;;;21.59;87.05
43420;BME280;29017;51.514;-0.178;2023-09-12T07:04:22;100908.97;;;21.56;86.41
43420;BME280;29017;51.514;-0.178;2023-09-12T07:06:49;100911.03;;;21.54;86.20
43420;BME280;29017;51.514;-0.178;2023-09-12T07:09:18;100903.00;;;21.54;86.23
43420;BME280;29017;51.514;-0.178;2023-09-12T07:11:47;100914.53;;;21.55;86.56
43420;BME280;29017;51.514;-0.178;2023-09-12T07:14:15;100911.88;;;21.55;86.33
43420;BME280;29017;51.514;-0.178;2023-09-12T07:16:42;100915.97;;;21.57;87.43
43420;BME280;29017;51.514;-0.178;2023-09-12T07:19:09;100909.94;;;21.62;87.88
43420;BME280;29017;51.514;-0.178;2023-09-12T07:21:37;100923.91;;;21.64;87.19
43420;BME280;29017;51.514;-0.178;2023-09-12T07:24:04;100921.25;;;21.64;86.88
43420;BME280;29017;51.514;-0.178;2023-09-12T07:26:32;100923.13;;;21.63;87.34
43420;BME280;29017;51.514;-0.178;2023-09-12T07:28:59;100917.78;;;21.63;86.94
43420;BME280;29017;51.514;-0.178;2023-09-12T07:31:29;100919.63;;;21.63;86.76
43420;BME280;29017;51.514;-0.178;2023-09-12T07:33:58;100917.78;;;21.63;86.72
43420;BME280;29017;51.514;-0.178;2023-09-12T07:36:25;100927.41;;;21.64;87.18
43420;BME280;29017;51.514;-0.178;2023-09-12T07:38:53;100922.66;;;21.66;88.20
43420;BME280;29017;51.514;-0.178;2023-09-12T07:41:20;100925.13;;;21.68;87.80
43420;BME280;29017;51.514;-0.178;2023-09-12T07:43:47;100933.53;;;21.71;87.17
43420;BME280;29017;51.514;-0.178;2023-09-12T07:46:15;100935.59;;;21.69;87.22
43420;BME280;29017;51.514;-0.178;2023-09-12T07:48:42;100937.47;;;21.69;87.57
43420;BME280;29017;51.514;-0.178;2023-09-12T07:51:14;100933.16;;;21.68;87.70
43420;BME280;29017;51.514;-0.178;2023-09-12T07:53:42;100935.03;;;21.67;88.00
43420;BME280;29017;51.514;-0.178;2023-09-12T07:56:10;100935.84;;;21.68;88.41
43420;BME280;29017;51.514;-0.178;2023-09-12T07:58:38;100930.25;;;21.69;88.79
43420;BME280;29017;51.514;-0.178;2023-09-12T08:01:07;100933.53;;;21.71;88.26
43420;BME280;29017;51.514;-0.178;2023-09-12T08:03:35;100934.56;;;21.70;88.22
43420;BME280;29017;51.514;-0.178;2023-09-12T08:06:04;100933.16;;;21.68;88.51
43420;BME280;29017;51.514;-0.178;2023-09-12T08:08:31;100942.47;;;21.65;87.91
43420;BME280;29017;51.514;-0.178;2023-09-12T08:10:59;100932.34;;;21.67;88.63
43420;BME280;29017;51.514;-0.178;2023-09-12T08:13:28;100937.47;;;21.69;88.19
43420;BME280;29017;51.514;-0.178;2023-09-12T08:15:56;100935.38;;;21.71;88.29
43420;BME280;29017;51.514;-0.178;2023-09-12T08:18:28;100936.56;;;21.75;89.23
43420;BME280;29017;51.514;-0.178;2023-09-12T08:20:56;100948.13;;;21.75;88.42
43420;BME280;29017;51.514;-0.178;2023-09-12T08:23:24;100941.72;;;21.76;88.52
43420;BME280;29017;51.514;-0.178;2023-09-12T08:25:51;100935.06;;;21.79;88.00
43420;BME280;29017;51.514;-0.178;2023-09-12T08:28:18;100950.94;;;21.81;87.86
43420;BME280;29017;51.514;-0.178;2023-09-12T08:30:45;100945.94;;;21.84;87.51
43420;BME280;29017;51.514;-0.178;2023-09-12T08:33:13;100939.56;;;21.85;87.74
43420;BME280;29017;51.514;-0.178;2023-09-12T08:35:41;100949.59;;;21.90;87.24
43420;BME280;29017;51.514;-0.178;2023-09-12T08:38:09;100944.63;;;21.93;87.76
43420;BME280;29017;51.514;-0.178;2023-09-12T08:40:36;100944.63;;;21.93;87.30
43420;BME280;29017;51.514;-0.178;2023-09-12T08:43:04;100939.88;;;21.95;86.90
43420;BME280;29017;51.514;-0.178;2023-09-12T08:45:31;100947.09;;;21.95;86.09
43420;BME280;29017;51.514;-0.178;2023-09-12T08:47:59;100944.19;;;21.96;86.26
43420;BME280;29017;51.514;-0.178;2023-09-12T08:50:28;100944.19;;;21.96;86.46
43420;BME280;29017;51.514;-0.178;2023-09-12T08:53:00;100947.25;;;22.00;86.46
43420;BME280;29017;51.514;-0.178;2023-09-12T08:55:35;100945.78;;;22.04;86.57
43420;BME280;29017;51.514;-0.178;2023-09-12T08:58:04;100954.63;;;22.04;86.54
43420;BME280;29017;51.514;-0.178;2023-09-12T09:00:33;100949.84;;;22.06;86.39
43420;BME280;29017;51.514;-0.178;2023-09-12T09:03:03;100955.56;;;22.10;85.90
43420;BME280;29017;51.514;-0.178;2023-09-12T09:08:01;100951.16;;;22.15;85.49
43420;BME280;29017;51.514;-0.178;2023-09-12T09:10:30;100946.75;;;22.21;86.73
43420;BME280;29017;51.514;-0.178;2023-09-12T09:13:17;100951.91;;;22.23;85.48
43420;BME280;29017;51.514;-0.178;2023-09-12T09:15:45;100944.69;;;22.23;85.42
43420;BME280;29017;51.514;-0.178;2023-09-12T09:18:12;100948.75;;;22.26;85.37
43420;BME280;29017;51.514;-0.178;2023-09-12T09:20:40;100951.59;;;22.31;84.88
43420;BME280;29017;51.514;-0.178;2023-09-12T09:23:09;100948.47;;;22.34;84.84
43420;BME280;29017;51.514;-0.178;2023-09-12T09:25:42;100948.00;;;22.37;84.43
43420;BME280;29017;51.514;-0.178;2023-09-12T09:28:18;100940.56;;;22.39;83.77
43420;BME280;29017;51.514;-0.178;2023-09-12T09:30:47;100944.88;;;22.40;84.34
43420;BME280;29017;51.514;-0.178;2023-09-12T09:33:15;100937.41;;;22.42;84.02
43420;BME280;29017;51.514;-0.178;2023-09-12T09:35:45;100941.06;;;22.47;84.18
43420;BME280;29017;51.514;-0.178;2023-09-12T09:38:13;100932.88;;;22.42;82.28
43420;BME280;29017;51.514;-0.178;2023-09-12T09:40:44;100935.09;;;22.45;81.92
43420;BME280;29017;51.514;-0.178;2023-09-12T09:43:11;100931.38;;;22.46;81.84
43420;BME280;29017;51.514;-0.178;2023-09-12T09:45:45;100937.09;;;22.50;82.54
43420;BME280;29017;51.514;-0.178;2023-09-12T09:48:20;100936.41;;;22.54;81.91
43420;BME280;29017;51.514;-0.178;2023-09-12T09:50:48;100938.41;;;22.59;82.25
43420;BME280;29017;51.514;-0.178;2023-09-12T09:53:15;100935.25;;;22.62;82.32
43420;BME280;29017;51.514;-0.178;2023-09-12T09:55:43;100935.03;;;22.64;81.93
43420;BME280;29017;51.514;-0.178;2023-09-12T09:58:14;100936.59;;;22.71;80.63
43420;BME280;29017;51.514;-0.178;2023-09-12T10:00:43;100927.84;;;22.76;79.81
43420;BME280;29017;51.514;-0.178;2023-09-12T10:03:12;100932.56;;;22.80;80.24
43420;BME280;29017;51.514;-0.178;2023-09-12T10:05:44;100933.94;;;22.83;79.46
43420;BME280;29017;51.514;-0.178;2023-09-12T10:08:12;100934.53;;;22.85;79.34
43420;BME280;29017;51.514;-0.178;2023-09-12T10:10:44;100934.88;;;22.88;78.76
43420;BME280;29017;51.514;-0.178;2023-09-12T10:13:12;100934.19;;;22.93;77.97
43420;BME280;29017;51.514;-0.178;2023-09-12T10:15:43;100938.88;;;22.97;77.49
43420;BME280;29017;51.514;-0.178;2023-09-12T10:18:15;100938.41;;;23.00;77.62
43420;BME280;29017;51.514;-0.178;2023-09-12T10:21:03;100934.22;;;23.05;77.29
43420;BME280;29017;51.514;-0.178;2023-09-12T10:23:35;100940.75;;;23.09;77.79
43420;BME280;29017;51.514;-0.178;2023-09-12T10:26:13;100940.88;;;23.14;77.48
43420;BME280;29017;51.514;-0.178;2023-09-12T10:28:41;100934.56;;;23.20;78.71
43420;BME280;29017;51.514;-0.178;2023-09-12T10:31:12;100938.19;;;23.25;78.16
43420;BME280;29017;51.514;-0.178;2023-09-12T10:33:39;100928.63;;;23.29;77.20
43420;BME280;29017;51.514;-0.178;2023-09-12T10:36:09;100925.94;;;23.29;75.52
43420;BME280;29017;51.514;-0.178;2023-09-12T10:38:45;100932.47;;;23.33;75.54
43420;BME280;29017;51.514;-0.178;2023-09-12T10:41:15;100931.41;;;23.34;74.21
43420;BME280;29017;51.514;-0.178;2023-09-12T10:43:44;100928.63;;;23.41;75.95
43420;BME280;29017;51.514;-0.178;2023-09-12T10:46:22;100930.63;;;23.46;75.27
43420;BME280;29017;51.514;-0.178;2023-09-12T10:48:50;100934.25;;;23.51;74.95
43420;BME280;29017;51.514;-0.178;2023-09-12T10:51:18;100937.75;;;23.52;74.36
43420;BME280;29017;51.514;-0.178;2023-09-12T10:53:49;100925.94;;;23.53;72.86
43420;BME280;29017;51.514;-0.178;2023-09-12T10:56:18;100929.69;;;23.52;72.61
43420;BME280;29017;51.514;-0.178;2023-09-12T11:01:32;100928.28;;;23.49;74.64
43420;BME280;29017;51.514;-0.178;2023-09-12T11:06:47;100923.25;;;23.53;72.36
43420;BME280;29017;51.514;-0.178;2023-09-12T11:11:45;100924.44;;;23.57;72.87
43420;BME280;29017;51.514;-0.178;2023-09-12T11:14:15;100918.47;;;23.55;72.93
43420;BME280;29017;51.514;-0.178;2023-09-12T11:16:43;100932.72;;;23.55;72.95
43420;BME280;29017;51.514;-0.178;2023-09-12T11:19:20;100927.91;;;23.57;73.46
43420;BME280;29017;51.514;-0.178;2023-09-12T11:21:51;100925.22;;;23.57;73.18
43420;BME280;29017;51.514;-0.178;2023-09-12T11:24:20;100925.00;;;23.59;73.64
43420;BME280;29017;51.514;-0.178;2023-09-12T11:27:00;100913.78;;;23.62;72.77
43420;BME280;29017;51.514;-0.178;2023-09-12T11:29:37;100909.47;;;23.61;72.90
43420;BME280;29017;51.514;-0.178;2023-09-12T11:32:06;100911.34;;;23.60;72.75
43420;BME280;29017;51.514;-0.178;2023-09-12T11:34:38;100908.97;;;23.64;72.67
43420;BME280;29017;51.514;-0.178;2023-09-12T11:37:08;100908.25;;;23.68;72.86
43420;BME280;29017;51.514;-0.178;2023-09-12T11:39:38;100904.88;;;23.73;72.41
43420;BME280;29017;51.514;-0.178;2023-09-12T11:42:10;100917.84;;;23.76;72.15
43420;BME280;29017;51.514;-0.178;2023-09-12T11:44:40;100910.94;;;23.80;72.39
43420;BME280;29017;51.514;-0.178;2023-09-12T11:47:08;100915.59;;;23.84;70.75
43420;BME280;29017;51.514;-0.178;2023-09-12T11:49:39;100917.34;;;23.91;70.59
43420;BME280;29017;51.514;-0.178;2023-09-12T11:52:15;100906.91;;;23.94;69.92
43420;BME280;29017;51.514;-0.178;2023-09-12T11:54:44;100910.19;;;23.96;70.44
43420;BME280;29017;51.514;-0.178;2023-09-12T11:57:14;100908.88;;;23.99;71.50
43420;BME280;29017;51.514;-0.178;2023-09-12T11:59:44;100913.44;;;23.98;70.60
43420;BME280;29017;51.514;-0.178;2023-09-12T12:02:12;100913.22;;;24.00;70.07
43420;BME280;29017;51.514;-0.178;2023-09-12T12:04:41;100897.31;;;23.98;71.14
43420;BME280;29017;51.514;-0.178;2023-09-12T12:07:09;100904.91;;;24.01;70.37
43420;BME280;29017;51.514;-0.178;2023-09-12T12:09:37;100906.28;;;24.04;70.60
43420;BME280;29017;51.514;-0.178;2023-09-12T12:12:11;100907.22;;;24.09;71.68
43420;BME280;29017;51.514;-0.178;2023-09-12T12:14:41;100902.41;;;24.11;70.06
43420;BME280;29017;51.514;-0.178;2023-09-12T12:17:09;100908.94;;;24.15;69.63
43420;BME280;29017;51.514;-0.178;2023-09-12T12:19:38;100902.75;;;24.15;67.48
43420;BME280;29017;51.514;-0.178;2023-09-12T12:22:06;100894.91;;;24.13;68.25
43420;BME280;29017;51.514;-0.178;2023-09-12T12:24:46;100900.56;;;24.12;68.29
43420;BME280;29017;51.514;-0.178;2023-09-12T12:27:15;100898.31;;;24.09;68.64
43420;BME280;29017;51.514;-0.178;2023-09-12T12:29:43;100901.50;;;24.06;68.68
43420;BME280;29017;51.514;-0.178;2023-09-12T12:32:11;100907.59;;;24.01;70.30
43420;BME280;29017;51.514;-0.178;2023-09-12T12:34:39;100898.00;;;24.05;71.01
43420;BME280;29017;51.514;-0.178;2023-09-12T12:37:29;100895.53;;;24.04;69.37
43420;BME280;29017;51.514;-0.178;2023-09-12T12:39:59;100896.25;;;23.99;69.43
43420;BME280;29017;51.514;-0.178;2023-09-12T12:42:34;100896.50;;;23.98;69.65
43420;BME280;29017;51.514;-0.178;2023-09-12T12:45:20;100898.63;;;23.96;69.05
43420;BME280;29017;51.514;-0.178;2023-09-12T12:47:56;100893.25;;;23.96;69.96
43420;BME280;29017;51.514;-0.178;2023-09-12T12:50:24;100888.91;;;23.95;70.02
43420;BME280;29017;51.514;-0.178;2023-09-12T12:52:52;100901.75;;;23.93;69.28
43420;BME280;29017;51.514;-0.178;2023-09-12T12:55:20;100890.78;;;23.94;69.44
43420;BME280;29017;51.514;-0.178;2023-09-12T12:57:48;100893.47;;;23.94;69.19
43420;BME280;29017;51.514;-0.178;2023-09-12T13:00:17;100892.66;;;23.94;68.67
43420;BME280;29017;51.514;-0.178;2023-09-12T13:02:46;100889.41;;;23.92;68.14